Time;durP1;ratioP1;P1;durP2;ratioP2;P2;SDS_P1;SDS_P2;PMS_P1;PMS_P2;Temp;Humidity;BMP_temperature;BMP_pressure;BME280_temperature;BME280_humidity;BME280_pressure;Samples;Min_cycle;Max_cycle;Signal;HPM_P1;HPM_P2
2023/07/22 00:00:29;;;;;;;;;;;24.60;72.30;;;;;;5004537;28;19913;-35
2023/07/22 00:02:55;;;;;;;;;;;24.60;71.50;;;;;;5004409;28;20449;-35
2023/07/22 00:05:23;;;;;;;;;;;24.60;69.70;;;;;;5004103;28;19914;-35
2023/07/22 00:07:52;;;;;;;;;;;24.60;68.50;;;;;;5004457;28;19948;-37
2023/07/22 00:10:18;;;;;;;;;;;24.60;67.30;;;;;;5004290;28;19922;-36
2023/07/22 00:12:44;;;;;;;;;;;24.60;66.50;;;;;;5004509;28;19920;-35
2023/07/22 00:15:13;;;;;;;;;;;24.60;66.50;;;;;;5003951;28;19933;-35
2023/07/22 00:17:40;;;;;;;;;;;24.60;65.00;;;;;;5004420;28;19914;-36
2023/07/22 00:20:06;;;;;;;;;;;24.60;64.40;;;;;;5004224;28;19913;-36
2023/07/22 00:22:32;;;;;;;;;;;24.50;63.90;;;;;;5004481;28;19921;-37
2023/07/22 00:25:01;;;;;;;;;;;24.50;63.30;;;;;;5003798;28;19917;-36
2023/07/22 00:27:27;;;;;;;;;;;24.50;62.80;;;;;;4998484;28;19945;-36
2023/07/22 00:29:53;;;;;;;;;;;24.50;62.40;;;;;;5024724;28;20443;-36
2023/07/22 00:32:19;;;;;;;;;;;24.40;61.90;;;;;;5086015;28;20058;-37
2023/07/22 00:34:45;;;;;;;;;;;24.40;62.30;;;;;;5085685;28;20369;-37
2023/07/22 00:37:11;;;;;;;;;;;24.40;61.30;;;;;;5084367;28;19912;-36
2023/07/22 00:39:36;;;;;;;;;;;24.30;61.00;;;;;;5086075;28;19967;-36
2023/07/22 00:42:02;;;;;;;;;;;24.30;60.80;;;;;;5085445;28;19927;-37
2023/07/22 00:44:28;;;;;;;;;;;24.20;60.60;;;;;;5085744;28;19916;-37
2023/07/22 00:46:55;;;;;;;;;;;24.20;60.60;;;;;;5085742;28;19916;-37
2023/07/22 00:49:21;;;;;;;;;;;24.20;60.60;;;;;;5067415;28;19935;-37
2023/07/22 00:51:47;;;;;;;;;;;24.10;60.40;;;;;;5085844;28;19919;-37
2023/07/22 00:54:12;;;;;;;;;;;24.10;60.40;;;;;;5084928;28;19913;-37
2023/07/22 00:56:38;;;;;;;;;;;24.10;60.40;;;;;;5085409;28;19920;-36
2023/07/22 00:59:04;;;;;;;;;;;24.00;60.30;;;;;;5085098;28;19912;-37
2023/07/22 01:01:30;;;;;;;;;;;24.00;60.30;;;;;;5085910;28;19942;-37
2023/07/22 01:03:56;;;;;;;;;;;24.00;60.20;;;;;;5082047;28;19920;-37
2023/07/22 01:06:22;;;;;;;;;;;24.00;60.20;;;;;;5085403;28;19920;-37
2023/07/22 01:08:48;;;;;;;;;;;23.90;60.50;;;;;;5084254;28;19931;-36
2023/07/22 01:11:14;;;;;;;;;;;23.90;63.20;;;;;;5081908;28;19944;-37
2023/07/22 01:13:39;;;;;;;;;;;23.90;65.20;;;;;;5084596;28;19919;-36
2023/07/22 01:16:06;;;;;;;;;;;23.90;65.60;;;;;;5077900;28;19919;-37
2023/07/22 01:18:32;;;;;;;;;;;23.80;65.80;;;;;;5085206;28;19913;-37
2023/07/22 01:20:58;;;;;;;;;;;23.80;65.90;;;;;;5067059;28;19924;-37
2023/07/22 01:23:24;;;;;;;;;;;23.80;66.10;;;;;;5085430;28;19912;-37
2023/07/22 01:25:50;;;;;;;;;;;23.80;66.30;;;;;;5084641;28;20706;-36
2023/07/22 01:28:16;;;;;;;;;;;23.80;66.50;;;;;;5065416;28;19908;-36
2023/07/22 01:30:41;;;;;;;;;;;23.80;66.80;;;;;;5085269;28;19913;-36
2023/07/22 01:33:08;;;;;;;;;;;23.80;67.00;;;;;;5084741;28;19963;-36
2023/07/22 01:35:34;;;;;;;;;;;23.80;67.20;;;;;;5083299;28;19909;-36
2023/07/22 01:38:00;;;;;;;;;;;23.80;67.40;;;;;;5082043;28;19912;-36
2023/07/22 01:40:25;;;;;;;;;;;23.80;67.60;;;;;;5083842;28;20300;-36
2023/07/22 01:42:51;;;;;;;;;;;23.80;67.70;;;;;;5084964;28;19909;-36
2023/07/22 01:45:17;;;;;;;;;;;23.80;67.80;;;;;;5084057;28;19912;-36
2023/07/22 01:47:43;;;;;;;;;;;23.80;68.00;;;;;;5083654;28;19920;-37
2023/07/22 01:50:12;;;;;;;;;;;23.80;68.10;;;;;;5084496;28;19935;-37
2023/07/22 01:52:38;;;;;;;;;;;23.80;68.20;;;;;;5082863;28;19923;-36
2023/07/22 01:55:05;;;;;;;;;;;23.80;68.40;;;;;;5082083;28;19912;-37
2023/07/22 01:57:34;;;;;;;;;;;23.80;68.50;;;;;;5084704;28;19984;-37
2023/07/22 02:00:00;;;;;;;;;;;23.80;68.60;;;;;;5083935;28;19923;-37
2023/07/22 02:02:26;;;;;;;;;;;23.90;68.80;;;;;;5084637;28;19947;-36
2023/07/22 02:04:52;;;;;;;;;;;23.90;68.90;;;;;;5084042;28;20351;-37
2023/07/22 02:07:18;;;;;;;;;;;23.90;69.10;;;;;;5079694;28;19932;-37
2023/07/22 02:09:44;;;;;;;;;;;23.90;69.20;;;;;;5084019;28;19921;-37
2023/07/22 02:12:11;;;;;;;;;;;23.90;69.30;;;;;;5083606;28;20406;-37
2023/07/22 02:14:37;;;;;;;;;;;23.90;69.50;;;;;;5084173;28;19908;-36
2023/07/22 02:17:03;;;;;;;;;;;23.90;69.50;;;;;;5083249;28;19912;-36
2023/07/22 02:19:29;;;;;;;;;;;23.90;69.60;;;;;;5084191;28;19912;-37
2023/07/22 02:21:55;;;;;;;;;;;23.90;69.60;;;;;;5083263;28;19916;-37
2023/07/22 02:24:22;;;;;;;;;;;24.00;69.70;;;;;;5082471;28;19912;-37
2023/07/22 02:26:47;;;;;;;;;;;24.00;69.80;;;;;;5065613;28;20118;-37
2023/07/22 02:29:13;;;;;;;;;;;24.00;69.80;;;;;;5083668;28;19912;-37
2023/07/22 02:31:39;;;;;;;;;;;24.00;70.00;;;;;;5083626;28;19919;-37
2023/07/22 02:34:05;;;;;;;;;;;24.00;70.00;;;;;;5083678;28;19919;-37
2023/07/22 02:36:31;;;;;;;;;;;24.00;70.10;;;;;;5083026;28;19939;-37
2023/07/22 02:38:57;;;;;;;;;;;24.00;70.10;;;;;;5082280;28;19913;-37
2023/07/22 02:41:23;;;;;;;;;;;24.00;70.20;;;;;;5082965;28;19912;-37
2023/07/22 02:43:49;;;;;;;;;;;24.00;70.30;;;;;;5083482;28;19908;-37
2023/07/22 02:46:15;;;;;;;;;;;24.00;70.30;;;;;;5082891;28;19931;-37
2023/07/22 02:48:41;;;;;;;;;;;24.00;70.30;;;;;;5083344;28;19912;-37
2023/07/22 02:51:07;;;;;;;;;;;24.00;70.40;;;;;;5083421;28;19930;-37
2023/07/22 02:53:33;;;;;;;;;;;24.00;70.40;;;;;;5082762;28;19912;-37
2023/07/22 02:55:59;;;;;;;;;;;24.00;70.50;;;;;;5082022;28;19944;-37
2023/07/22 02:58:25;;;;;;;;;;;24.10;70.60;;;;;;5083067;28;20338;-38
2023/07/22 03:00:51;;;;;;;;;;;24.10;70.70;;;;;;5083425;28;19975;-37
2023/07/22 03:03:18;;;;;;;;;;;24.10;70.70;;;;;;5083129;28;20363;-37
2023/07/22 03:05:44;;;;;;;;;;;24.10;70.70;;;;;;5082901;28;19927;-38
2023/07/22 03:08:10;;;;;;;;;;;24.10;70.60;;;;;;5075341;28;19920;-37
2023/07/22 03:10:36;;;;;;;;;;;24.10;70.50;;;;;;5083159;28;19916;-38
2023/07/22 03:13:02;;;;;;;;;;;24.10;70.50;;;;;;5082700;28;19994;-38
2023/07/22 03:15:28;;;;;;;;;;;24.10;70.40;;;;;;5083208;28;20376;-38
2023/07/22 03:17:55;;;;;;;;;;;24.10;70.40;;;;;;5077921;28;19908;-38
2023/07/22 03:20:22;;;;;;;;;;;24.10;70.30;;;;;;5082929;28;19912;-38
2023/07/22 03:22:48;;;;;;;;;;;24.10;70.40;;;;;;5083054;28;19919;-38
2023/07/22 03:25:16;;;;;;;;;;;24.10;70.60;;;;;;5064345;28;19913;-37
2023/07/22 03:27:42;;;;;;;;;;;24.10;70.80;;;;;;5082957;28;19927;-37
2023/07/22 03:30:10;;;;;;;;;;;24.10;71.00;;;;;;5082370;28;19912;-37
2023/07/22 03:32:36;;;;;;;;;;;24.10;71.10;;;;;;5082889;28;19908;-37
2023/07/22 03:35:02;;;;;;;;;;;24.10;71.00;;;;;;5082379;28;20687;-37
2023/07/22 03:37:28;;;;;;;;;;;24.10;71.20;;;;;;5081393;28;19939;-37
2023/07/22 03:39:54;;;;;;;;;;;24.10;71.30;;;;;;5079563;28;19908;-37
2023/07/22 03:42:20;;;;;;;;;;;24.10;71.20;;;;;;5082479;28;20396;-37
2023/07/22 03:44:46;;;;;;;;;;;24.10;71.00;;;;;;5082394;28;20021;-37
2023/07/22 03:47:12;;;;;;;;;;;24.10;70.70;;;;;;5080748;28;20039;-37
2023/07/22 03:49:38;;;;;;;;;;;24.10;70.70;;;;;;5082688;28;19912;-37
2023/07/22 03:52:04;;;;;;;;;;;24.10;70.50;;;;;;5082382;28;20237;-38
2023/07/22 03:54:30;;;;;;;;;;;24.10;70.40;;;;;;5082678;28;19959;-37
2023/07/22 03:56:55;;;;;;;;;;;24.10;70.30;;;;;;5082233;28;19908;-37
2023/07/22 03:59:21;;;;;;;;;;;24.10;70.40;;;;;;5081709;28;20003;-37
2023/07/22 04:01:47;;;;;;;;;;;24.10;70.30;;;;;;5082345;28;19909;-37
2023/07/22 04:04:13;;;;;;;;;;;24.10;70.50;;;;;;5082409;28;19909;-37
2023/07/22 04:06:39;;;;;;;;;;;24.10;70.50;;;;;;5082315;28;19927;-38
2023/07/22 04:09:05;;;;;;;;;;;24.10;70.70;;;;;;5080642;28;19921;-38
2023/07/22 04:11:31;;;;;;;;;;;24.10;71.40;;;;;;5082291;28;19953;-38
2023/07/22 04:13:57;;;;;;;;;;;24.10;71.20;;;;;;5082306;28;19919;-38
2023/07/22 04:16:22;;;;;;;;;;;24.10;71.50;;;;;;5082465;28;20299;-38
2023/07/22 04:18:48;;;;;;;;;;;24.10;71.50;;;;;;5081922;28;19919;-36
2023/07/22 04:21:14;;;;;;;;;;;24.10;71.60;;;;;;5075571;28;19968;-38
2023/07/22 04:23:40;;;;;;;;;;;24.10;71.80;;;;;;5082187;28;19920;-38
2023/07/22 04:26:07;;;;;;;;;;;24.10;71.50;;;;;;5081995;28;19923;-38
2023/07/22 04:28:36;;;;;;;;;;;24.10;71.80;;;;;;5082439;28;19943;-38
2023/07/22 04:31:03;;;;;;;;;;;24.10;70.90;;;;;;5081787;28;19971;-38
2023/07/22 04:33:29;;;;;;;;;;;24.10;70.70;;;;;;5075260;28;20019;-37
2023/07/22 04:35:57;;;;;;;;;;;24.10;70.70;;;;;;5077723;28;19912;-38
2023/07/22 04:38:23;;;;;;;;;;;24.10;70.50;;;;;;5080898;28;19942;-38
2023/07/22 04:40:48;;;;;;;;;;;24.10;70.60;;;;;;5082089;28;19908;-38
2023/07/22 04:43:14;;;;;;;;;;;24.10;70.60;;;;;;5081662;28;19923;-37
2023/07/22 04:45:40;;;;;;;;;;;24.10;70.70;;;;;;5081343;28;19975;-38
2023/07/22 04:48:06;;;;;;;;;;;24.10;71.10;;;;;;5085476;28;19913;-38
2023/07/22 04:50:32;;;;;;;;;;;24.10;71.30;;;;;;5085591;28;19927;-38
2023/07/22 04:52:58;;;;;;;;;;;24.10;71.50;;;;;;5085532;28;19989;-38
2023/07/22 04:55:26;;;;;;;;;;;24.10;71.60;;;;;;5085479;28;20448;-38
2023/07/22 04:57:51;;;;;;;;;;;24.20;71.90;;;;;;5085382;28;19908;-38
2023/07/22 05:00:18;;;;;;;;;;;24.10;71.90;;;;;;5085174;28;20005;-38
2023/07/22 05:02:45;;;;;;;;;;;24.10;71.80;;;;;;5084803;28;19918;-38
2023/07/22 05:05:14;;;;;;;;;;;24.10;71.70;;;;;;5085473;28;19912;-38
2023/07/22 05:07:40;;;;;;;;;;;24.10;71.70;;;;;;5081136;28;19943;-38
2023/07/22 05:10:07;;;;;;;;;;;24.10;71.50;;;;;;5077764;28;19921;-38
2023/07/22 05:12:33;;;;;;;;;;;24.10;71.30;;;;;;5085445;28;19919;-37
2023/07/22 05:14:59;;;;;;;;;;;24.10;71.10;;;;;;5084796;28;19912;-38
2023/07/22 05:17:25;;;;;;;;;;;24.10;71.00;;;;;;5085313;28;19908;-38
2023/07/22 05:19:51;;;;;;;;;;;24.10;71.00;;;;;;5083001;28;19909;-40
2023/07/22 05:22:17;;;;;;;;;;;24.10;70.90;;;;;;5085003;28;19912;-37
2023/07/22 05:24:43;;;;;;;;;;;24.10;70.90;;;;;;5085268;28;19961;-38
2023/07/22 05:27:09;;;;;;;;;;;24.10;71.00;;;;;;5084639;28;19920;-37
2023/07/22 05:29:35;;;;;;;;;;;24.10;71.10;;;;;;5085361;28;19935;-37
2023/07/22 05:32:01;;;;;;;;;;;24.10;71.40;;;;;;5084290;28;19923;-38
2023/07/22 05:34:26;;;;;;;;;;;24.10;71.50;;;;;;5085071;28;19912;-37
2023/07/22 05:36:52;;;;;;;;;;;24.10;71.60;;;;;;5084150;28;19950;-38
2023/07/22 05:39:18;;;;;;;;;;;24.10;71.50;;;;;;5084627;28;20475;-38
2023/07/22 05:41:44;;;;;;;;;;;24.10;71.60;;;;;;5084667;28;20372;-38
2023/07/22 05:44:10;;;;;;;;;;;24.10;71.60;;;;;;5084940;28;19995;-38
2023/07/22 05:46:37;;;;;;;;;;;24.10;71.60;;;;;;5084986;28;19983;-37
2023/07/22 05:49:02;;;;;;;;;;;24.10;71.80;;;;;;5084545;28;19957;-37
2023/07/22 05:51:28;;;;;;;;;;;24.10;71.70;;;;;;5084141;28;19912;-38
2023/07/22 05:53:54;;;;;;;;;;;24.10;71.70;;;;;;5084230;28;19915;-38
2023/07/22 05:56:20;;;;;;;;;;;24.10;71.60;;;;;;5082542;28;19919;-38
2023/07/22 05:58:46;;;;;;;;;;;24.10;71.50;;;;;;5081336;28;19915;-37
2023/07/22 06:01:12;;;;;;;;;;;24.10;71.40;;;;;;5083517;28;19912;-38
2023/07/22 06:03:38;;;;;;;;;;;24.10;71.30;;;;;;5084064;28;19951;-38
2023/07/22 06:06:04;;;;;;;;;;;24.10;71.30;;;;;;5083767;28;19927;-38
2023/07/22 06:08:30;;;;;;;;;;;24.10;71.40;;;;;;5082890;28;19920;-38
2023/07/22 06:10:56;;;;;;;;;;;24.10;71.20;;;;;;5083787;28;19919;-37
2023/07/22 06:13:22;;;;;;;;;;;24.10;71.40;;;;;;5084139;28;19915;-37
2023/07/22 06:15:48;;;;;;;;;;;24.10;71.60;;;;;;5082675;28;19916;-38
2023/07/22 06:18:13;;;;;;;;;;;24.10;71.70;;;;;;5083956;28;19912;-37
2023/07/22 06:20:39;;;;;;;;;;;24.10;71.80;;;;;;5080970;28;19913;-38
2023/07/22 06:23:05;;;;;;;;;;;24.10;71.90;;;;;;5081803;28;19919;-38
2023/07/22 06:25:31;;;;;;;;;;;24.10;72.00;;;;;;5084009;28;19912;-37
2023/07/22 06:27:57;;;;;;;;;;;24.10;71.90;;;;;;5083434;28;19975;-38
2023/07/22 06:30:23;;;;;;;;;;;24.10;72.10;;;;;;5083745;28;19995;-38
2023/07/22 06:32:49;;;;;;;;;;;24.10;72.10;;;;;;5083804;28;19948;-37
2023/07/22 06:35:15;;;;;;;;;;;24.10;72.10;;;;;;5083055;28;20252;-38
2023/07/22 06:37:40;;;;;;;;;;;24.10;72.10;;;;;;5083824;28;19966;-38
2023/07/22 06:40:07;;;;;;;;;;;24.10;71.90;;;;;;5083509;28;19915;-38
2023/07/22 06:42:33;;;;;;;;;;;24.00;71.80;;;;;;5081774;28;19913;-38
2023/07/22 06:44:58;;;;;;;;;;;24.00;71.90;;;;;;5083279;28;19916;-38
2023/07/22 06:47:24;;;;;;;;;;;24.00;71.80;;;;;;5083325;28;20347;-38
2023/07/22 06:49:50;;;;;;;;;;;24.10;71.70;;;;;;5083399;28;19931;-37
2023/07/22 06:52:16;;;;;;;;;;;24.10;71.70;;;;;;5082955;28;19919;-38
2023/07/22 06:54:42;;;;;;;;;;;24.00;71.70;;;;;;5083397;28;19912;-38
2023/07/22 06:57:08;;;;;;;;;;;24.00;71.80;;;;;;5083168;28;19916;-38
2023/07/22 06:59:34;;;;;;;;;;;24.10;72.00;;;;;;5078538;28;19909;-38
2023/07/22 07:02:00;;;;;;;;;;;24.00;72.20;;;;;;5082842;28;19912;-38
2023/07/22 07:04:26;;;;;;;;;;;24.00;72.20;;;;;;5083274;28;19912;-38
2023/07/22 07:06:52;;;;;;;;;;;24.00;72.30;;;;;;5082863;28;19916;-38
2023/07/22 07:09:18;;;;;;;;;;;24.00;72.20;;;;;;5082051;28;19920;-38
2023/07/22 07:11:44;;;;;;;;;;;24.00;72.40;;;;;;5082951;28;19912;-37
2023/07/22 07:14:10;;;;;;;;;;;24.00;72.30;;;;;;5082742;28;19913;-37
2023/07/22 07:16:36;;;;;;;;;;;24.00;72.40;;;;;;5083056;28;19908;-37
2023/07/22 07:19:02;;;;;;;;;;;24.00;72.40;;;;;;5081043;28;19965;-38
2023/07/22 07:21:28;;;;;;;;;;;24.00;72.30;;;;;;5069888;28;19934;-38
2023/07/22 07:23:54;;;;;;;;;;;24.00;72.10;;;;;;5082574;28;19912;-38
2023/07/22 07:26:40;;;;;;;;;;;24.00;72.10;;;;;;5030545;28;20019;-38
2023/07/22 07:29:06;;;;;;;;;;;24.00;72.10;;;;;;5038054;28;19913;-38
2023/07/22 07:31:31;;;;;;;;;;;24.00;72.10;;;;;;5039534;28;20444;-38
2023/07/22 07:33:57;;;;;;;;;;;24.00;72.10;;;;;;5039959;28;19913;-38
2023/07/22 07:36:23;;;;;;;;;;;24.00;72.10;;;;;;5040272;28;19960;-43
2023/07/22 07:38:49;;;;;;;;;;;24.00;72.20;;;;;;5039175;28;19916;-38
2023/07/22 07:41:15;;;;;;;;;;;24.00;72.30;;;;;;5039675;28;19963;-37
2023/07/22 07:43:41;;;;;;;;;;;24.00;72.50;;;;;;5039885;28;20040;-38
2023/07/22 07:46:27;;;;;;;;;;;24.00;72.50;;;;;;4962008;29;19922;-38
2023/07/22 07:48:54;;;;;;;;;;;24.00;72.60;;;;;;4962178;28;19915;-38
2023/07/22 07:51:20;;;;;;;;;;;24.00;72.60;;;;;;4945834;29;20014;-37
2023/07/22 07:53:49;;;;;;;;;;;24.00;73.40;;;;;;4961997;29;19946;-38
2023/07/22 07:56:15;;;;;;;;;;;24.00;72.70;;;;;;4961633;29;19918;-38
2023/07/22 07:58:41;;;;;;;;;;;24.00;72.70;;;;;;4945422;29;19915;-37
2023/07/22 08:01:07;;;;;;;;;;;24.00;72.80;;;;;;4961352;28;19914;-38
2023/07/22 08:03:33;;;;;;;;;;;24.00;72.70;;;;;;4977322;28;19914;-37
2023/07/22 08:05:59;;;;;;;;;;;24.00;72.50;;;;;;5000111;28;20010;-38
2023/07/22 08:08:25;;;;;;;;;;;24.00;72.50;;;;;;5001354;28;19945;-38
2023/07/22 08:11:00;;;;;;;;;;;24.00;72.50;;;;;;5000296;28;19972;-38
2023/07/22 08:13:26;;;;;;;;;;;24.00;72.50;;;;;;4999852;28;19921;-38
2023/07/22 08:15:53;;;;;;;;;;;24.00;72.50;;;;;;5000659;28;19920;-38
2023/07/22 08:18:18;;;;;;;;;;;24.00;72.50;;;;;;5000118;28;19921;-38
2023/07/22 08:20:47;;;;;;;;;;;24.00;72.50;;;;;;5003651;28;20371;-37
2023/07/22 08:23:13;;;;;;;;;;;24.00;72.60;;;;;;5016307;28;19912;-38
2023/07/22 08:25:39;;;;;;;;;;;24.00;72.70;;;;;;5086168;28;19954;-38
2023/07/22 08:28:04;;;;;;;;;;;24.00;72.80;;;;;;5085689;28;20399;-38
2023/07/22 08:30:30;;;;;;;;;;;24.00;73.00;;;;;;5086278;28;20003;-37
2023/07/22 08:33:16;;;;;;;;;;;23.90;72.90;;;;;;5004058;28;20008;-38
2023/07/22 08:35:42;;;;;;;;;;;24.00;73.00;;;;;;5006394;28;19976;-38
2023/07/22 08:38:08;;;;;;;;;;;23.90;73.00;;;;;;5006398;28;19918;-38
2023/07/22 08:40:34;;;;;;;;;;;23.90;73.10;;;;;;5005161;28;19920;-37
2023/07/22 08:43:01;;;;;;;;;;;23.90;73.00;;;;;;5004564;28;19910;-37
2023/07/22 08:45:28;;;;;;;;;;;23.90;73.00;;;;;;5003780;28;19971;-38
2023/07/22 08:47:54;;;;;;;;;;;23.90;72.90;;;;;;5003870;28;19928;-38
2023/07/22 08:50:20;;;;;;;;;;;23.90;72.90;;;;;;4989297;28;19977;-38
2023/07/22 08:52:46;;;;;;;;;;;23.90;72.90;;;;;;5007902;28;20724;-38
2023/07/22 08:55:12;;;;;;;;;;;23.90;72.70;;;;;;5003143;28;19965;-39
2023/07/22 08:57:38;;;;;;;;;;;23.90;72.80;;;;;;5009912;28;19941;-38
2023/07/22 09:00:06;;;;;;;;;;;23.90;72.90;;;;;;4995124;28;19977;-38
2023/07/22 09:02:35;;;;;;;;;;;23.90;72.80;;;;;;4983318;28;19925;-38
2023/07/22 09:05:01;;;;;;;;;;;23.90;72.80;;;;;;5000448;28;20004;-38
2023/07/22 09:07:27;;;;;;;;;;;23.90;72.90;;;;;;5003249;28;19922;-38
2023/07/22 09:09:53;;;;;;;;;;;23.90;73.00;;;;;;5027748;28;19926;-38
2023/07/22 09:12:19;;;;;;;;;;;23.90;73.10;;;;;;5067200;28;19908;-38
2023/07/22 09:14:44;;;;;;;;;;;23.90;73.10;;;;;;5079918;28;20304;-38
2023/07/22 09:17:10;;;;;;;;;;;23.90;73.10;;;;;;5082853;28;19908;-38
2023/07/22 09:19:36;;;;;;;;;;;23.90;73.20;;;;;;5085678;28;19973;-38
2023/07/22 09:22:02;;;;;;;;;;;23.90;73.10;;;;;;5085000;28;19943;-38
2023/07/22 09:24:29;;;;;;;;;;;23.90;73.20;;;;;;5080153;28;20736;-37
2023/07/22 09:26:55;;;;;;;;;;;23.90;73.20;;;;;;5078782;28;19917;-38
2023/07/22 09:29:39;;;;;;;;;;;23.90;73.20;;;;;;5085166;28;19913;-38
2023/07/22 09:32:05;;;;;;;;;;;23.90;73.10;;;;;;5083772;28;19953;-38
2023/07/22 09:34:31;;;;;;;;;;;23.90;73.10;;;;;;5084871;28;19915;-38
2023/07/22 09:37:00;;;;;;;;;;;23.80;73.00;;;;;;5083275;28;19908;-38
2023/07/22 09:39:26;;;;;;;;;;;23.90;73.00;;;;;;5077432;28;19919;-38
2023/07/22 09:41:55;;;;;;;;;;;23.80;73.00;;;;;;5084816;28;19904;-37
2023/07/22 09:44:21;;;;;;;;;;;23.90;73.00;;;;;;5084564;28;19920;-38
2023/07/22 09:46:48;;;;;;;;;;;23.80;73.00;;;;;;5084551;28;19923;-39
2023/07/22 09:49:14;;;;;;;;;;;23.80;73.00;;;;;;5084591;28;19912;-38
2023/07/22 09:51:40;;;;;;;;;;;23.80;73.10;;;;;;5066161;28;20444;-38
2023/07/22 09:54:06;;;;;;;;;;;23.80;73.20;;;;;;5082975;28;19909;-37
2023/07/22 09:56:32;;;;;;;;;;;23.80;73.20;;;;;;5081508;28;19912;-38
2023/07/22 09:59:03;;;;;;;;;;;23.80;73.10;;;;;;5080948;28;19922;-38
2023/07/22 10:01:29;;;;;;;;;;;23.80;73.30;;;;;;5079642;28;19916;-38
2023/07/22 10:03:56;;;;;;;;;;;23.80;73.30;;;;;;5082920;28;19966;-38
2023/07/22 10:06:28;;;;;;;;;;;23.80;73.40;;;;;;5074285;28;19916;-38
2023/07/22 10:08:57;;;;;;;;;;;23.80;73.40;;;;;;5084304;28;19955;-38
2023/07/22 10:11:23;;;;;;;;;;;23.80;73.30;;;;;;5084068;28;19957;-38
2023/07/22 10:13:49;;;;;;;;;;;23.80;73.30;;;;;;5065935;28;20275;-38
2023/07/22 10:16:15;;;;;;;;;;;23.80;73.20;;;;;;5084095;28;19936;-38
2023/07/22 10:18:43;;;;;;;;;;;23.80;73.20;;;;;;5084071;28;19963;-38
2023/07/22 10:21:08;;;;;;;;;;;23.80;73.10;;;;;;5083688;28;19980;-37
2023/07/22 10:23:34;;;;;;;;;;;23.80;73.20;;;;;;5084011;28;19974;-38
2023/07/22 10:26:00;;;;;;;;;;;23.80;73.20;;;;;;5083138;28;19916;-38
2023/07/22 10:28:26;;;;;;;;;;;23.80;73.20;;;;;;5076019;28;20596;-38
2023/07/22 10:30:52;;;;;;;;;;;23.80;73.20;;;;;;5081743;28;19919;-38
2023/07/22 10:33:18;;;;;;;;;;;23.80;73.30;;;;;;5083636;28;20005;-38
2023/07/22 10:36:01;;;;;;;;;;;23.80;73.30;;;;;;5083931;28;19991;-38
2023/07/22 10:38:27;;;;;;;;;;;23.80;73.40;;;;;;5082116;28;19912;-37
2023/07/22 10:40:53;;;;;;;;;;;23.80;73.50;;;;;;5083791;28;19912;-38
2023/07/22 10:43:26;;;;;;;;;;;23.80;73.40;;;;;;5083064;28;19912;-37
2023/07/22 10:45:53;;;;;;;;;;;23.80;73.60;;;;;;5083461;28;19913;-38
2023/07/22 10:48:19;;;;;;;;;;;23.80;73.50;;;;;;5083261;28;20408;-41
2023/07/22 10:50:48;;;;;;;;;;;23.80;73.60;;;;;;5083463;28;19912;-38
2023/07/22 10:53:23;;;;;;;;;;;23.80;73.50;;;;;;5082877;28;19919;-37
2023/07/22 10:56:01;;;;;;;;;;;23.80;73.60;;;;;;5083169;28;20376;-38
2023/07/22 10:58:27;;;;;;;;;;;23.80;73.50;;;;;;5074161;28;19912;-38
2023/07/22 11:00:53;;;;;;;;;;;23.80;73.50;;;;;;5083047;28;19998;-38
2023/07/22 11:03:19;;;;;;;;;;;23.80;73.50;;;;;;5083077;28;19912;-37
2023/07/22 11:05:50;;;;;;;;;;;23.70;73.40;;;;;;5079064;28;19913;-37
2023/07/22 11:08:16;;;;;;;;;;;23.80;73.50;;;;;;5080542;28;19924;-37
2023/07/22 11:11:00;;;;;;;;;;;23.70;73.40;;;;;;5080705;28;19912;-37
2023/07/22 11:13:29;;;;;;;;;;;23.70;73.50;;;;;;5079077;28;19919;-37
2023/07/22 11:15:58;;;;;;;;;;;23.70;73.40;;;;;;5082883;28;19916;-37
2023/07/22 11:18:37;;;;;;;;;;;23.80;73.60;;;;;;5071115;28;19995;-37
2023/07/22 11:21:06;;;;;;;;;;;23.70;73.40;;;;;;5077367;28;19912;-37
2023/07/22 11:23:34;;;;;;;;;;;23.70;73.60;;;;;;5083072;28;19919;-37
2023/07/22 11:26:01;;;;;;;;;;;23.70;73.60;;;;;;5082527;28;19916;-37
2023/07/22 11:28:27;;;;;;;;;;;23.70;73.70;;;;;;5064924;28;19984;-37
2023/07/22 11:30:53;;;;;;;;;;;23.70;73.70;;;;;;5083038;28;20310;-37
2023/07/22 11:33:19;;;;;;;;;;;23.70;73.80;;;;;;5083071;28;19919;-37
2023/07/22 11:35:45;;;;;;;;;;;23.70;73.90;;;;;;5081756;28;19912;-37
2023/07/22 11:38:14;;;;;;;;;;;23.70;73.70;;;;;;5082324;28;19912;-37
2023/07/22 11:40:39;;;;;;;;;;;23.70;73.80;;;;;;5082787;28;19943;-37
2023/07/22 11:43:05;;;;;;;;;;;23.70;73.70;;;;;;5064571;28;19920;-38
2023/07/22 11:45:32;;;;;;;;;;;23.70;73.60;;;;;;5082746;28;19933;-37
2023/07/22 11:47:57;;;;;;;;;;;23.70;73.60;;;;;;5082561;28;19928;-37
2023/07/22 11:50:33;;;;;;;;;;;23.70;73.60;;;;;;5082994;28;20297;-38
2023/07/22 11:52:59;;;;;;;;;;;23.70;73.60;;;;;;5082291;28;19922;-38
2023/07/22 11:55:24;;;;;;;;;;;23.70;74.40;;;;;;5079294;28;19928;-38
2023/07/22 11:57:54;;;;;;;;;;;23.70;73.70;;;;;;5088177;28;19954;-38
2023/07/22 12:00:20;;;;;;;;;;;23.70;73.70;;;;;;5088940;28;20461;-38
2023/07/22 12:02:46;;;;;;;;;;;23.70;73.60;;;;;;5071202;28;19916;-37
2023/07/22 12:05:12;;;;;;;;;;;23.70;73.90;;;;;;5086110;28;19913;-37
2023/07/22 12:07:38;;;;;;;;;;;23.70;73.80;;;;;;5087567;28;19926;-38
2023/07/22 12:10:07;;;;;;;;;;;23.70;73.90;;;;;;5088783;28;20043;-38
2023/07/22 12:12:46;;;;;;;;;;;23.70;74.00;;;;;;5089237;28;19948;-37
2023/07/22 12:15:15;;;;;;;;;;;23.70;74.00;;;;;;5088899;28;19912;-38
2023/07/22 12:17:44;;;;;;;;;;;23.70;73.90;;;;;;5089118;28;19990;-37
2023/07/22 12:20:10;;;;;;;;;;;23.70;73.90;;;;;;5088872;28;19924;-37
2023/07/22 12:22:38;;;;;;;;;;;23.70;73.90;;;;;;5086369;28;20377;-38
2023/07/22 12:25:05;;;;;;;;;;;23.70;73.80;;;;;;5089038;28;19908;-38
2023/07/22 12:27:31;;;;;;;;;;;23.70;73.80;;;;;;5088838;28;19916;-38
2023/07/22 12:29:56;;;;;;;;;;;23.70;73.70;;;;;;5088380;28;19919;-38
2023/07/22 12:32:22;;;;;;;;;;;23.70;73.80;;;;;;5088538;28;19983;-37
2023/07/22 12:34:48;;;;;;;;;;;23.70;73.70;;;;;;5088900;28;19908;-37
2023/07/22 12:37:14;;;;;;;;;;;23.70;73.70;;;;;;5088459;28;19908;-37
2023/07/22 12:39:40;;;;;;;;;;;23.70;73.70;;;;;;5089090;28;19919;-37
2023/07/22 12:42:06;;;;;;;;;;;23.70;73.80;;;;;;5088741;28;20353;-37
2023/07/22 12:44:31;;;;;;;;;;;23.70;73.80;;;;;;5089158;28;20022;-37
2023/07/22 12:46:57;;;;;;;;;;;23.70;74.00;;;;;;5088062;28;19927;-37
2023/07/22 12:49:23;;;;;;;;;;;23.70;74.00;;;;;;5088626;28;19981;-37
2023/07/22 12:51:49;;;;;;;;;;;23.70;74.20;;;;;;5088878;28;19991;-37
2023/07/22 12:54:15;;;;;;;;;;;23.70;74.30;;;;;;5088696;28;19951;-36
2023/07/22 12:56:43;;;;;;;;;;;23.70;74.20;;;;;;5081938;28;20336;-37
2023/07/22 12:59:09;;;;;;;;;;;23.70;74.20;;;;;;5086855;28;20002;-37
2023/07/22 13:01:38;;;;;;;;;;;23.70;74.20;;;;;;5088358;28;19958;-37
2023/07/22 13:04:04;;;;;;;;;;;23.70;74.30;;;;;;5088662;28;19912;-37
2023/07/22 13:06:30;;;;;;;;;;;23.70;74.20;;;;;;5085115;28;19927;-37
2023/07/22 13:08:56;;;;;;;;;;;23.70;74.10;;;;;;5082996;28;19994;-37
2023/07/22 13:11:22;;;;;;;;;;;23.70;73.90;;;;;;5080531;28;19916;-37
2023/07/22 13:13:48;;;;;;;;;;;23.70;73.90;;;;;;5079761;28;19908;-37
2023/07/22 13:16:14;;;;;;;;;;;23.70;73.80;;;;;;5084483;28;19916;-37
2023/07/22 13:18:40;;;;;;;;;;;23.70;73.80;;;;;;5085337;28;19999;-37
2023/07/22 13:21:06;;;;;;;;;;;23.70;73.80;;;;;;5079623;28;20285;-36
2023/07/22 13:23:32;;;;;;;;;;;23.70;73.80;;;;;;5085242;28;19919;-37
2023/07/22 13:25:57;;;;;;;;;;;23.70;73.70;;;;;;5084780;28;19979;-39
2023/07/22 13:28:23;;;;;;;;;;;23.70;74.00;;;;;;5078523;28;19912;-37
2023/07/22 13:30:49;;;;;;;;;;;23.70;74.10;;;;;;5085278;28;19916;-37
2023/07/22 13:33:15;;;;;;;;;;;23.70;74.20;;;;;;5085044;28;19919;-37
2023/07/22 13:35:41;;;;;;;;;;;23.70;74.20;;;;;;5085125;28;19983;-37
2023/07/22 13:38:07;;;;;;;;;;;23.70;74.30;;;;;;5073256;28;19913;-37
2023/07/22 13:40:33;;;;;;;;;;;23.70;74.40;;;;;;5065023;28;19912;-37
2023/07/22 13:42:59;;;;;;;;;;;23.70;74.40;;;;;;5065189;28;20400;-36
2023/07/22 13:45:26;;;;;;;;;;;23.70;74.40;;;;;;5083367;28;19920;-37
2023/07/22 13:47:52;;;;;;;;;;;23.70;74.50;;;;;;5083814;28;20376;-37
2023/07/22 13:50:18;;;;;;;;;;;23.70;74.20;;;;;;5084561;28;19912;-38
2023/07/22 13:52:44;;;;;;;;;;;23.70;74.20;;;;;;5084369;28;19957;-37
2023/07/22 13:55:10;;;;;;;;;;;23.70;74.00;;;;;;5084257;28;19981;-37
2023/07/22 13:57:36;;;;;;;;;;;23.70;74.00;;;;;;5084337;28;19913;-37
2023/07/22 14:00:22;;;;;;;;;;;23.80;73.80;;;;;;5083971;28;20035;-38
2023/07/22 14:02:48;;;;;;;;;;;23.80;73.80;;;;;;5035340;28;19913;-38
2023/07/22 14:05:14;;;;;;;;;;;23.80;73.80;;;;;;5038982;28;19920;-37
2023/07/22 14:07:40;;;;;;;;;;;23.80;73.80;;;;;;5021051;28;19921;-38
2023/07/22 14:10:06;;;;;;;;;;;23.80;73.90;;;;;;5029216;28;19961;-38
2023/07/22 14:12:32;;;;;;;;;;;23.80;74.10;;;;;;5033071;28;19913;-37